sensor_id;sensor_type;location;lat;lon;timestamp;temperature;humidity
16388;DHT22;8303;53.446;9.988;2023-07-13T04:43:38;14.80;99.90
16388;DHT22;8303;53.446;9.988;2023-07-13T04:46:07;14.80;99.90
16388;DHT22;8303;53.446;9.988;2023-07-13T04:48:34;14.90;99.90
16388;DHT22;8303;53.446;9.988;2023-07-13T04:51:02;15.00;99.90
16388;DHT22;8303;53.446;9.988;2023-07-13T04:53:30;15.10;99.90
16388;DHT22;8303;53.446;9.988;2023-07-13T04:56:00;15.20;74.30
16388;DHT22;8303;53.446;9.988;2023-07-13T04:58:27;15.20;1.00
16388;DHT22;8303;53.446;9.988;2023-07-13T05:01:01;15.30;1.00
16388;DHT22;8303;53.446;9.988;2023-07-13T05:03:29;15.40;1.00
16388;DHT22;8303;53.446;9.988;2023-07-13T05:05:57;15.50;1.00
16388;DHT22;8303;53.446;9.988;2023-07-13T05:08:24;15.60;99.90
16388;DHT22;8303;53.446;9.988;2023-07-13T05:10:51;15.80;99.90
16388;DHT22;8303;53.446;9.988;2023-07-13T05:13:18;15.90;1.00
16388;DHT22;8303;53.446;9.988;2023-07-13T05:15:46;16.20;1.00
16388;DHT22;8303;53.446;9.988;2023-07-13T05:18:15;16.30;1.00
16388;DHT22;8303;53.446;9.988;2023-07-13T05:20:42;16.50;1.00
16388;DHT22;8303;53.446;9.988;2023-07-13T05:23:08;16.70;88.70
16388;DHT22;8303;53.446;9.988;2023-07-13T05:25:35;16.80;1.00
16388;DHT22;8303;53.446;9.988;2023-07-13T05:28:02;17.00;1.00
16388;DHT22;8303;53.446;9.988;2023-07-13T05:30:29;17.00;99.90
16388;DHT22;8303;53.446;9.988;2023-07-13T05:32:56;17.10;1.00
16388;DHT22;8303;53.446;9.988;2023-07-13T05:35:24;17.10;1.00
16388;DHT22;8303;53.446;9.988;2023-07-13T05:37:51;17.00;1.00
16388;DHT22;8303;53.446;9.988;2023-07-13T05:40:18;17.00;1.00
16388;DHT22;8303;53.446;9.988;2023-07-13T05:42:45;17.10;45.00
16388;DHT22;8303;53.446;9.988;2023-07-13T05:45:12;17.10;1.00
16388;DHT22;8303;53.446;9.988;2023-07-13T05:47:39;17.10;1.00
16388;DHT22;8303;53.446;9.988;2023-07-13T05:50:07;17.10;1.00
16388;DHT22;8303;53.446;9.988;2023-07-13T05:52:35;17.10;1.00
16388;DHT22;8303;53.446;9.988;2023-07-13T05:55:03;17.10;1.00
16388;DHT22;8303;53.446;9.988;2023-07-13T05:57:31;17.20;1.00
16388;DHT22;8303;53.446;9.988;2023-07-13T05:59:58;17.40;1.00
16388;DHT22;8303;53.446;9.988;2023-07-13T06:02:25;17.70;99.90
16388;DHT22;8303;53.446;9.988;2023-07-13T06:04:52;17.70;99.90
16388;DHT22;8303;53.446;9.988;2023-07-13T06:07:19;17.80;1.00
16388;DHT22;8303;53.446;9.988;2023-07-13T06:09:48;17.70;1.00
16388;DHT22;8303;53.446;9.988;2023-07-13T06:12:15;17.60;1.00
16388;DHT22;8303;53.446;9.988;2023-07-13T06:14:42;17.60;1.00
16388;DHT22;8303;53.446;9.988;2023-07-13T06:17:09;17.60;1.00
16388;DHT22;8303;53.446;9.988;2023-07-13T06:19:35;17.50;1.00
16388;DHT22;8303;53.446;9.988;2023-07-13T06:22:03;17.50;1.00
16388;DHT22;8303;53.446;9.988;2023-07-13T06:24:30;17.50;1.00
16388;DHT22;8303;53.446;9.988;2023-07-13T06:26:59;17.60;1.00
16388;DHT22;8303;53.446;9.988;2023-07-13T06:29:26;17.70;1.00
16388;DHT22;8303;53.446;9.988;2023-07-13T06:31:52;17.70;1.00
16388;DHT22;8303;53.446;9.988;2023-07-13T06:34:20;17.70;99.90
16388;DHT22;8303;53.446;9.988;2023-07-13T06:36:47;17.70;99.90
16388;DHT22;8303;53.446;9.988;2023-07-13T06:39:14;17.70;1.00
16388;DHT22;8303;53.446;9.988;2023-07-13T06:41:41;17.70;1.00
16388;DHT22;8303;53.446;9.988;2023-07-13T06:44:09;17.80;1.00
16388;DHT22;8303;53.446;9.988;2023-07-13T06:46:37;17.90;1.00
16388;DHT22;8303;53.446;9.988;2023-07-13T06:49:04;17.80;99.90
16388;DHT22;8303;53.446;9.988;2023-07-13T06:51:31;17.90;25.80
16388;DHT22;8303;53.446;9.988;2023-07-13T06:53:58;17.80;99.90
16388;DHT22;8303;53.446;9.988;2023-07-13T06:56:25;18.00;99.90
16388;DHT22;8303;53.446;9.988;2023-07-13T06:58:52;18.10;1.00
16388;DHT22;8303;53.446;9.988;2023-07-13T07:01:20;18.20;16.10
16388;DHT22;8303;53.446;9.988;2023-07-13T07:03:50;18.20;1.00
16388;DHT22;8303;53.446;9.988;2023-07-13T07:06:18;18.00;99.90
16388;DHT22;8303;53.446;9.988;2023-07-13T07:08:46;18.00;99.90
16388;DHT22;8303;53.446;9.988;2023-07-13T07:11:16;18.10;99.90
16388;DHT22;8303;53.446;9.988;2023-07-13T07:13:44;18.10;94.40
16388;DHT22;8303;53.446;9.988;2023-07-13T07:16:11;18.20;93.90
16388;DHT22;8303;53.446;9.988;2023-07-13T07:18:39;18.20;99.90
16388;DHT22;8303;53.446;9.988;2023-07-13T07:21:06;18.10;1.00
16388;DHT22;8303;53.446;9.988;2023-07-13T07:23:34;18.10;99.90
16388;DHT22;8303;53.446;9.988;2023-07-13T07:26:01;18.10;85.90
16388;DHT22;8303;53.446;9.988;2023-07-13T07:28:28;18.20;99.90
16388;DHT22;8303;53.446;9.988;2023-07-13T07:30:57;18.70;99.90
16388;DHT22;8303;53.446;9.988;2023-07-13T07:33:24;18.80;1.00
16388;DHT22;8303;53.446;9.988;2023-07-13T07:35:53;18.60;99.90
16388;DHT22;8303;53.446;9.988;2023-07-13T07:38:20;18.70;99.90
16388;DHT22;8303;53.446;9.988;2023-07-13T07:40:48;18.90;99.90
16388;DHT22;8303;53.446;9.988;2023-07-13T07:43:15;19.00;1.30
16388;DHT22;8303;53.446;9.988;2023-07-13T07:45:44;19.00;27.50
16388;DHT22;8303;53.446;9.988;2023-07-13T07:48:11;18.90;99.90
16388;DHT22;8303;53.446;9.988;2023-07-13T07:50:38;19.00;99.90
16388;DHT22;8303;53.446;9.988;2023-07-13T07:53:07;18.90;99.90
16388;DHT22;8303;53.446;9.988;2023-07-13T07:55:36;18.60;99.90
16388;DHT22;8303;53.446;9.988;2023-07-13T07:58:04;18.50;99.90
16388;DHT22;8303;53.446;9.988;2023-07-13T08:00:31;18.80;1.00
16388;DHT22;8303;53.446;9.988;2023-07-13T08:02:58;19.10;99.90
16388;DHT22;8303;53.446;9.988;2023-07-13T08:05:26;19.40;1.00
16388;DHT22;8303;53.446;9.988;2023-07-13T08:07:56;19.60;1.00
16388;DHT22;8303;53.446;9.988;2023-07-13T08:10:24;19.60;1.00
16388;DHT22;8303;53.446;9.988;2023-07-13T08:12:51;19.40;1.00
16388;DHT22;8303;53.446;9.988;2023-07-13T08:15:18;19.60;76.20
16388;DHT22;8303;53.446;9.988;2023-07-13T08:17:46;19.70;64.60
16388;DHT22;8303;53.446;9.988;2023-07-13T08:20:13;19.80;1.00
16388;DHT22;8303;53.446;9.988;2023-07-13T08:22:41;20.00;1.00
16388;DHT22;8303;53.446;9.988;2023-07-13T08:25:08;20.10;99.90
16388;DHT22;8303;53.446;9.988;2023-07-13T08:27:36;20.30;99.90
16388;DHT22;8303;53.446;9.988;2023-07-13T08:30:04;20.20;99.90
16388;DHT22;8303;53.446;9.988;2023-07-13T08:32:33;20.20;1.00
16388;DHT22;8303;53.446;9.988;2023-07-13T08:35:04;20.20;1.00
16388;DHT22;8303;53.446;9.988;2023-07-13T08:37:31;20.20;99.90
16388;DHT22;8303;53.446;9.988;2023-07-13T08:39:59;20.20;1.00
16388;DHT22;8303;53.446;9.988;2023-07-13T08:42:36;19.90;1.00
16388;DHT22;8303;53.446;9.988;2023-07-13T08:45:08;19.90;78.80
16388;DHT22;8303;53.446;9.988;2023-07-13T08:47:43;20.10;1.00
16388;DHT22;8303;53.446;9.988;2023-07-13T08:50:14;20.40;1.00
16388;DHT22;8303;53.446;9.988;2023-07-13T08:52:44;20.60;1.00
16388;DHT22;8303;53.446;9.988;2023-07-13T08:55:14;20.90;1.00
16388;DHT22;8303;53.446;9.988;2023-07-13T08:57:44;21.10;1.00
16388;DHT22;8303;53.446;9.988;2023-07-13T09:00:14;21.70;99.90
16388;DHT22;8303;53.446;9.988;2023-07-13T09:02:46;22.00;1.00
16388;DHT22;8303;53.446;9.988;2023-07-13T09:05:18;22.20;99.90
16388;DHT22;8303;53.446;9.988;2023-07-13T09:08:01;22.60;86.20
16388;DHT22;8303;53.446;9.988;2023-07-13T09:10:37;22.70;1.00
16388;DHT22;8303;53.446;9.988;2023-07-13T09:13:19;22.20;1.00
16388;DHT22;8303;53.446;9.988;2023-07-13T09:15:51;21.90;99.90
16388;DHT22;8303;53.446;9.988;2023-07-13T09:18:25;21.80;99.90
16388;DHT22;8303;53.446;9.988;2023-07-13T09:20:57;21.80;99.90
16388;DHT22;8303;53.446;9.988;2023-07-13T09:23:27;22.00;99.90
16388;DHT22;8303;53.446;9.988;2023-07-13T09:26:01;21.80;99.90
16388;DHT22;8303;53.446;9.988;2023-07-13T09:28:34;21.60;1.00
16388;DHT22;8303;53.446;9.988;2023-07-13T09:31:09;21.40;99.90
16388;DHT22;8303;53.446;9.988;2023-07-13T09:33:42;21.60;99.90
16388;DHT22;8303;53.446;9.988;2023-07-13T09:36:18;21.90;1.00
16388;DHT22;8303;53.446;9.988;2023-07-13T09:38:47;22.00;1.00
16388;DHT22;8303;53.446;9.988;2023-07-13T09:41:21;22.10;1.00
16388;DHT22;8303;53.446;9.988;2023-07-13T09:44:08;21.70;1.00
16388;DHT22;8303;53.446;9.988;2023-07-13T09:46:40;22.10;1.00
16388;DHT22;8303;53.446;9.988;2023-07-13T09:49:10;22.40;1.00
16388;DHT22;8303;53.446;9.988;2023-07-13T09:51:38;22.70;1.00
16388;DHT22;8303;53.446;9.988;2023-07-13T09:54:05;22.90;1.00
16388;DHT22;8303;53.446;9.988;2023-07-13T09:56:32;23.10;1.00
16388;DHT22;8303;53.446;9.988;2023-07-13T09:58:59;23.00;1.00
16388;DHT22;8303;53.446;9.988;2023-07-13T10:01:34;23.00;1.00
16388;DHT22;8303;53.446;9.988;2023-07-13T10:04:10;22.90;1.00
16388;DHT22;8303;53.446;9.988;2023-07-13T10:06:39;23.10;1.00
16388;DHT22;8303;53.446;9.988;2023-07-13T10:09:09;23.10;1.00
16388;DHT22;8303;53.446;9.988;2023-07-13T10:11:38;23.20;1.00
16388;DHT22;8303;53.446;9.988;2023-07-13T10:14:12;23.30;1.00
16388;DHT22;8303;53.446;9.988;2023-07-13T10:16:43;23.10;1.00
16388;DHT22;8303;53.446;9.988;2023-07-13T10:19:15;23.00;1.00
16388;DHT22;8303;53.446;9.988;2023-07-13T10:21:52;22.70;1.00
16388;DHT22;8303;53.446;9.988;2023-07-13T10:24:22;22.90;1.00
16388;DHT22;8303;53.446;9.988;2023-07-13T10:26:55;22.80;1.00
16388;DHT22;8303;53.446;9.988;2023-07-13T10:29:25;22.80;1.00
16388;DHT22;8303;53.446;9.988;2023-07-13T10:31:53;22.60;1.00
16388;DHT22;8303;53.446;9.988;2023-07-13T10:34:24;22.20;1.00
16388;DHT22;8303;53.446;9.988;2023-07-13T10:36:51;21.90;1.00
16388;DHT22;8303;53.446;9.988;2023-07-13T10:39:22;21.70;1.00
16388;DHT22;8303;53.446;9.988;2023-07-13T10:41:55;21.60;1.00
16388;DHT22;8303;53.446;9.988;2023-07-13T10:44:26;21.80;1.00
16388;DHT22;8303;53.446;9.988;2023-07-13T10:46:57;22.40;1.00
16388;DHT22;8303;53.446;9.988;2023-07-13T10:49:27;22.70;1.00
16388;DHT22;8303;53.446;9.988;2023-07-13T10:51:55;23.10;1.00
16388;DHT22;8303;53.446;9.988;2023-07-13T10:54:27;23.10;1.00
16388;DHT22;8303;53.446;9.988;2023-07-13T10:57:13;23.20;1.00
16388;DHT22;8303;53.446;9.988;2023-07-13T10:59:42;23.30;1.00
16388;DHT22;8303;53.446;9.988;2023-07-13T11:02:21;22.80;1.00
16388;DHT22;8303;53.446;9.988;2023-07-13T11:04:53;22.50;1.00
16388;DHT22;8303;53.446;9.988;2023-07-13T11:07:23;22.20;1.00
16388;DHT22;8303;53.446;9.988;2023-07-13T11:09:51;22.10;1.00
16388;DHT22;8303;53.446;9.988;2023-07-13T11:12:49;22.10;1.00
16388;DHT22;8303;53.446;9.988;2023-07-13T11:15:29;22.20;1.00
16388;DHT22;8303;53.446;9.988;2023-07-13T11:17:56;22.60;1.00
16388;DHT22;8303;53.446;9.988;2023-07-13T11:20:42;22.90;1.00
16388;DHT22;8303;53.446;9.988;2023-07-13T11:23:27;23.10;1.00
16388;DHT22;8303;53.446;9.988;2023-07-13T11:25:56;22.70;99.90
16388;DHT22;8303;53.446;9.988;2023-07-13T11:28:24;22.90;1.00
16388;DHT22;8303;53.446;9.988;2023-07-13T11:31:03;23.30;99.90
16388;DHT22;8303;53.446;9.988;2023-07-13T11:33:52;22.80;99.90
16388;DHT22;8303;53.446;9.988;2023-07-13T11:36:23;22.90;99.90
16388;DHT22;8303;53.446;9.988;2023-07-13T11:38:57;23.20;99.90
16388;DHT22;8303;53.446;9.988;2023-07-13T11:41:28;23.50;99.90
16388;DHT22;8303;53.446;9.988;2023-07-13T11:44:06;23.40;99.90
16388;DHT22;8303;53.446;9.988;2023-07-13T11:46:34;23.70;99.90
16388;DHT22;8303;53.446;9.988;2023-07-13T11:49:01;24.20;99.90
16388;DHT22;8303;53.446;9.988;2023-07-13T11:51:34;24.00;99.90
16388;DHT22;8303;53.446;9.988;2023-07-13T11:54:04;24.10;99.90
16388;DHT22;8303;53.446;9.988;2023-07-13T11:56:32;24.20;99.90
16388;DHT22;8303;53.446;9.988;2023-07-13T11:59:04;24.30;99.90
16388;DHT22;8303;53.446;9.988;2023-07-13T12:01:42;24.80;99.90
16388;DHT22;8303;53.446;9.988;2023-07-13T12:04:20;24.90;99.90
16388;DHT22;8303;53.446;9.988;2023-07-13T12:06:54;24.80;99.90
16388;DHT22;8303;53.446;9.988;2023-07-13T12:09:22;24.50;99.90
16388;DHT22;8303;53.446;9.988;2023-07-13T12:11:51;23.70;99.90
16388;DHT22;8303;53.446;9.988;2023-07-13T12:14:19;23.40;99.90
16388;DHT22;8303;53.446;9.988;2023-07-13T12:16:46;23.20;99.90
16388;DHT22;8303;53.446;9.988;2023-07-13T12:19:18;23.10;99.90
16388;DHT22;8303;53.446;9.988;2023-07-13T12:21:46;22.70;99.90
16388;DHT22;8303;53.446;9.988;2023-07-13T12:24:16;21.90;99.90
16388;DHT22;8303;53.446;9.988;2023-07-13T12:26:44;20.90;1.00
16388;DHT22;8303;53.446;9.988;2023-07-13T12:29:16;19.50;99.90
16388;DHT22;8303;53.446;9.988;2023-07-13T12:31:45;18.60;1.00
16388;DHT22;8303;53.446;9.988;2023-07-13T12:34:14;18.20;1.00
16388;DHT22;8303;53.446;9.988;2023-07-13T12:36:46;18.10;99.90
16388;DHT22;8303;53.446;9.988;2023-07-13T12:39:18;18.30;99.90
16388;DHT22;8303;53.446;9.988;2023-07-13T12:41:46;18.30;99.90
16388;DHT22;8303;53.446;9.988;2023-07-13T12:44:15;18.40;99.90
16388;DHT22;8303;53.446;9.988;2023-07-13T12:46:53;18.60;1.00
16388;DHT22;8303;53.446;9.988;2023-07-13T12:49:24;18.70;99.90
16388;DHT22;8303;53.446;9.988;2023-07-13T12:51:56;18.70;99.90
16388;DHT22;8303;53.446;9.988;2023-07-13T12:54:26;18.80;1.00
16388;DHT22;8303;53.446;9.988;2023-07-13T12:56:55;18.70;1.00
16388;DHT22;8303;53.446;9.988;2023-07-13T12:59:26;18.80;99.90
16388;DHT22;8303;53.446;9.988;2023-07-13T13:01:55;19.00;99.90
16388;DHT22;8303;53.446;9.988;2023-07-13T13:04:23;19.10;1.00
16388;DHT22;8303;53.446;9.988;2023-07-13T13:07:00;19.20;1.00
16388;DHT22;8303;53.446;9.988;2023-07-13T13:09:29;19.20;99.90
16388;DHT22;8303;53.446;9.988;2023-07-13T13:11:56;19.10;91.80
16388;DHT22;8303;53.446;9.988;2023-07-13T13:14:22;19.10;1.00
16388;DHT22;8303;53.446;9.988;2023-07-13T13:16:51;19.00;99.90
16388;DHT22;8303;53.446;9.988;2023-07-13T13:19:22;19.00;99.90
16388;DHT22;8303;53.446;9.988;2023-07-13T13:21:50;19.20;1.00
16388;DHT22;8303;53.446;9.988;2023-07-13T13:24:20;19.40;1.00
16388;DHT22;8303;53.446;9.988;2023-07-13T13:26:49;19.60;99.90
16388;DHT22;8303;53.446;9.988;2023-07-13T13:29:18;19.80;7.10
16388;DHT22;8303;53.446;9.988;2023-07-13T13:31:46;20.00;1.00
16388;DHT22;8303;53.446;9.988;2023-07-13T13:34:15;20.20;1.00
16388;DHT22;8303;53.446;9.988;2023-07-13T13:36:43;20.00;1.00
16388;DHT22;8303;53.446;9.988;2023-07-13T13:39:19;19.80;1.00
16388;DHT22;8303;53.446;9.988;2023-07-13T13:41:48;19.90;45.40
16388;DHT22;8303;53.446;9.988;2023-07-13T13:44:16;19.90;99.90
16388;DHT22;8303;53.446;9.988;2023-07-13T13:46:44;19.70;99.90
16388;DHT22;8303;53.446;9.988;2023-07-13T13:49:15;19.70;99.90
16388;DHT22;8303;53.446;9.988;2023-07-13T13:51:42;19.80;99.90
16388;DHT22;8303;53.446;9.988;2023-07-13T13:54:12;19.60;1.00
16388;DHT22;8303;53.446;9.988;2023-07-13T13:56:41;19.70;1.00
16388;DHT22;8303;53.446;9.988;2023-07-13T13:59:09;19.70;1.00
16388;DHT22;8303;53.446;9.988;2023-07-13T14:01:37;19.70;1.00
16388;DHT22;8303;53.446;9.988;2023-07-13T14:04:04;19.80;1.00
16388;DHT22;8303;53.446;9.988;2023-07-13T14:06:32;19.80;1.00
16388;DHT22;8303;53.446;9.988;2023-07-13T14:09:00;19.70;1.00
16388;DHT22;8303;53.446;9.988;2023-07-13T14:11:28;19.90;1.00
16388;DHT22;8303;53.446;9.988;2023-07-13T14:13:58;20.10;99.90
16388;DHT22;8303;53.446;9.988;2023-07-13T14:16:29;20.40;99.90
16388;DHT22;8303;53.446;9.988;2023-07-13T14:18:57;20.60;87.00
16388;DHT22;8303;53.446;9.988;2023-07-13T14:21:26;20.60;1.00
16388;DHT22;8303;53.446;9.988;2023-07-13T14:23:53;20.70;1.00
16388;DHT22;8303;53.446;9.988;2023-07-13T14:26:23;20.60;1.00
16388;DHT22;8303;53.446;9.988;2023-07-13T14:28:52;20.50;1.00
16388;DHT22;8303;53.446;9.988;2023-07-13T14:31:20;20.70;1.00
16388;DHT22;8303;53.446;9.988;2023-07-13T14:33:48;20.80;1.00
16388;DHT22;8303;53.446;9.988;2023-07-13T14:36:26;21.00;1.00
16388;DHT22;8303;53.446;9.988;2023-07-13T14:38:53;21.00;1.00
16388;DHT22;8303;53.446;9.988;2023-07-13T14:41:21;21.10;1.00
16388;DHT22;8303;53.446;9.988;2023-07-13T14:43:48;21.20;1.00
16388;DHT22;8303;53.446;9.988;2023-07-13T14:46:24;21.10;1.00
16388;DHT22;8303;53.446;9.988;2023-07-13T14:49:00;20.90;1.00
16388;DHT22;8303;53.446;9.988;2023-07-13T14:51:27;20.80;1.00
16388;DHT22;8303;53.446;9.988;2023-07-13T14:53:54;21.10;1.00
16388;DHT22;8303;53.446;9.988;2023-07-13T14:56:21;21.50;1.00
16388;DHT22;8303;53.446;9.988;2023-07-13T14:58:48;22.00;1.00
16388;DHT22;8303;53.446;9.988;2023-07-13T15:01:15;22.30;1.00
16388;DHT22;8303;53.446;9.988;2023-07-13T15:03:46;21.90;1.00
16388;DHT22;8303;53.446;9.988;2023-07-13T15:06:15;21.80;1.00
16388;DHT22;8303;53.446;9.988;2023-07-13T15:08:42;21.40;1.00
16388;DHT22;8303;53.446;9.988;2023-07-13T15:11:10;21.10;1.00
16388;DHT22;8303;53.446;9.988;2023-07-13T15:13:38;21.00;1.00
16388;DHT22;8303;53.446;9.988;2023-07-13T15:16:14;21.90;1.00
16388;DHT22;8303;53.446;9.988;2023-07-13T15:18:43;23.20;1.00
16388;DHT22;8303;53.446;9.988;2023-07-13T15:21:19;24.70;1.00
16388;DHT22;8303;53.446;9.988;2023-07-13T15:23:48;25.30;99.90
16388;DHT22;8303;53.446;9.988;2023-07-13T15:26:16;24.90;99.90
16388;DHT22;8303;53.446;9.988;2023-07-13T15:28:44;24.30;1.00
16388;DHT22;8303;53.446;9.988;2023-07-13T15:31:19;24.20;1.00
16388;DHT22;8303;53.446;9.988;2023-07-13T15:33:47;24.40;1.00
16388;DHT22;8303;53.446;9.988;2023-07-13T15:36:16;23.90;1.00
16388;DHT22;8303;53.446;9.988;2023-07-13T15:38:44;22.90;1.00
16388;DHT22;8303;53.446;9.988;2023-07-13T15:41:17;22.40;1.00
16388;DHT22;8303;53.446;9.988;2023-07-13T15:43:46;21.90;1.00
16388;DHT22;8303;53.446;9.988;2023-07-13T15:46:13;21.70;1.00
16388;DHT22;8303;53.446;9.988;2023-07-13T15:48:40;21.40;1.00
16388;DHT22;8303;53.446;9.988;2023-07-13T15:51:12;21.00;1.00
16388;DHT22;8303;53.446;9.988;2023-07-13T15:53:40;20.90;1.00
16388;DHT22;8303;53.446;9.988;2023-07-13T15:56:19;20.90;1.00
16388;DHT22;8303;53.446;9.988;2023-07-13T15:58:46;20.90;1.00
16388;DHT22;8303;53.446;9.988;2023-07-13T16:01:13;20.90;1.00
16388;DHT22;8303;53.446;9.988;2023-07-13T16:03:40;20.70;1.00
16388;DHT22;8303;53.446;9.988;2023-07-13T16:06:14;20.70;1.00
16388;DHT22;8303;53.446;9.988;2023-07-13T16:08:42;20.60;1.00
16388;DHT22;8303;53.446;9.988;2023-07-13T16:11:15;20.50;1.00
16388;DHT22;8303;53.446;9.988;2023-07-13T16:13:44;20.50;1.00
16388;DHT22;8303;53.446;9.988;2023-07-13T16:16:13;20.50;1.00
16388;DHT22;8303;53.446;9.988;2023-07-13T16:18:40;20.60;1.00
16388;DHT22;8303;53.446;9.988;2023-07-13T16:21:10;20.60;1.00
16388;DHT22;8303;53.446;9.988;2023-07-13T16:23:38;20.80;1.00
16388;DHT22;8303;53.446;9.988;2023-07-13T16:26:21;21.60;1.00
16388;DHT22;8303;53.446;9.988;2023-07-13T16:28:50;21.70;1.00
16388;DHT22;8303;53.446;9.988;2023-07-13T16:31:35;22.50;1.00
16388;DHT22;8303;53.446;9.988;2023-07-13T16:34:02;25.80;99.90
16388;DHT22;8303;53.446;9.988;2023-07-13T16:36:29;27.60;99.90
16388;DHT22;8303;53.446;9.988;2023-07-13T16:38:57;28.30;99.90
16388;DHT22;8303;53.446;9.988;2023-07-13T16:41:24;28.00;99.90
16388;DHT22;8303;53.446;9.988;2023-07-13T16:43:52;27.80;99.90
16388;DHT22;8303;53.446;9.988;2023-07-13T16:46:22;28.20;99.90
16388;DHT22;8303;53.446;9.988;2023-07-13T16:48:49;28.30;99.90
16388;DHT22;8303;53.446;9.988;2023-07-13T16:51:16;27.90;99.90
16388;DHT22;8303;53.446;9.988;2023-07-13T16:53:43;27.70;99.90
16388;DHT22;8303;53.446;9.988;2023-07-13T16:56:15;28.30;99.90
16388;DHT22;8303;53.446;9.988;2023-07-13T16:58:43;27.50;99.90
16388;DHT22;8303;53.446;9.988;2023-07-13T17:01:12;27.40;99.90
16388;DHT22;8303;53.446;9.988;2023-07-13T17:03:39;27.60;99.90
16388;DHT22;8303;53.446;9.988;2023-07-13T17:06:24;26.30;99.90
16388;DHT22;8303;53.446;9.988;2023-07-13T17:08:53;24.20;99.90
16388;DHT22;8303;53.446;9.988;2023-07-13T17:11:21;24.30;99.90
16388;DHT22;8303;53.446;9.988;2023-07-13T17:13:48;23.40;99.90
16388;DHT22;8303;53.446;9.988;2023-07-13T17:16:16;23.50;99.90
16388;DHT22;8303;53.446;9.988;2023-07-13T17:18:43;25.30;99.90
16388;DHT22;8303;53.446;9.988;2023-07-13T17:21:14;25.60;99.90
16388;DHT22;8303;53.446;9.988;2023-07-13T17:23:43;23.90;99.90
16388;DHT22;8303;53.446;9.988;2023-07-13T17:26:10;23.50;99.90
16388;DHT22;8303;53.446;9.988;2023-07-13T17:28:37;23.60;99.90
16388;DHT22;8303;53.446;9.988;2023-07-13T17:31:09;24.00;99.90
16388;DHT22;8303;53.446;9.988;2023-07-13T17:33:39;25.10;99.90
16388;DHT22;8303;53.446;9.988;2023-07-13T17:36:11;25.40;99.90
16388;DHT22;8303;53.446;9.988;2023-07-13T17:38:41;26.20;99.90
16388;DHT22;8303;53.446;9.988;2023-07-13T17:41:09;25.70;99.90
16388;DHT22;8303;53.446;9.988;2023-07-13T17:43:37;23.60;99.90
16388;DHT22;8303;53.446;9.988;2023-07-13T17:46:10;22.40;99.90
16388;DHT22;8303;53.446;9.988;2023-07-13T17:48:40;21.90;1.00
16388;DHT22;8303;53.446;9.988;2023-07-13T17:51:09;21.60;1.00
16388;DHT22;8303;53.446;9.988;2023-07-13T17:53:36;21.40;1.00
16388;DHT22;8303;53.446;9.988;2023-07-13T17:56:04;21.40;1.00
16388;DHT22;8303;53.446;9.988;2023-07-13T17:58:31;20.90;1.00
16388;DHT22;8303;53.446;9.988;2023-07-13T18:00:58;20.70;1.00
16388;DHT22;8303;53.446;9.988;2023-07-13T18:03:26;20.30;1.00
16388;DHT22;8303;53.446;9.988;2023-07-13T18:06:00;20.00;1.00
16388;DHT22;8303;53.446;9.988;2023-07-13T18:08:30;19.70;1.00
16388;DHT22;8303;53.446;9.988;2023-07-13T18:10:58;19.70;1.00
16388;DHT22;8303;53.446;9.988;2023-07-13T18:13:26;19.50;1.00
16388;DHT22;8303;53.446;9.988;2023-07-13T18:15:54;19.40;1.00
16388;DHT22;8303;53.446;9.988;2023-07-13T18:18:25;19.40;1.00
16388;DHT22;8303;53.446;9.988;2023-07-13T18:20:52;19.30;1.00
16388;DHT22;8303;53.446;9.988;2023-07-13T18:23:23;19.20;1.00
16388;DHT22;8303;53.446;9.988;2023-07-13T18:25:51;19.20;1.00
16388;DHT22;8303;53.446;9.988;2023-07-13T18:28:19;19.00;1.00
16388;DHT22;8303;53.446;9.988;2023-07-13T18:30:51;19.00;1.00
16388;DHT22;8303;53.446;9.988;2023-07-13T18:33:21;19.00;1.00
16388;DHT22;8303;53.446;9.988;2023-07-13T18:35:49;18.90;1.00
16388;DHT22;8303;53.446;9.988;2023-07-13T18:38:18;18.80;1.00
16388;DHT22;8303;53.446;9.988;2023-07-13T18:40:47;18.70;1.00
16388;DHT22;8303;53.446;9.988;2023-07-13T18:43:14;18.60;1.00
16388;DHT22;8303;53.446;9.988;2023-07-13T18:45:41;18.50;1.00
16388;DHT22;8303;53.446;9.988;2023-07-13T18:48:13;18.40;1.00
16388;DHT22;8303;53.446;9.988;2023-07-13T18:50:43;18.30;9.70
16388;DHT22;8303;53.446;9.988;2023-07-13T18:53:12;18.20;99.90
16388;DHT22;8303;53.446;9.988;2023-07-13T18:55:41;18.10;99.90
16388;DHT22;8303;53.446;9.988;2023-07-13T18:58:11;18.00;99.90
16388;DHT22;8303;53.446;9.988;2023-07-13T19:00:38;17.90;99.90
16388;DHT22;8303;53.446;9.988;2023-07-13T19:03:11;17.90;99.90
16388;DHT22;8303;53.446;9.988;2023-07-13T19:05:40;17.80;99.90
16388;DHT22;8303;53.446;9.988;2023-07-13T19:08:12;17.70;99.90
16388;DHT22;8303;53.446;9.988;2023-07-13T19:10:41;17.60;99.90
16388;DHT22;8303;53.446;9.988;2023-07-13T19:13:13;17.50;99.90
16388;DHT22;8303;53.446;9.988;2023-07-13T19:15:42;17.50;1.00
16388;DHT22;8303;53.446;9.988;2023-07-13T19:18:12;17.40;1.00
16388;DHT22;8303;53.446;9.988;2023-07-13T19:20:40;17.40;1.00
16388;DHT22;8303;53.446;9.988;2023-07-13T19:23:15;17.30;1.00
16388;DHT22;8303;53.446;9.988;2023-07-13T19:25:44;17.30;99.90
16388;DHT22;8303;53.446;9.988;2023-07-13T19:28:25;17.20;99.90
16388;DHT22;8303;53.446;9.988;2023-07-13T19:30:52;17.20;99.90
16388;DHT22;8303;53.446;9.988;2023-07-13T19:33:19;17.10;1.00
16388;DHT22;8303;53.446;9.988;2023-07-13T19:35:46;17.00;1.00
16388;DHT22;8303;53.446;9.988;2023-07-13T19:38:14;17.00;99.90
16388;DHT22;8303;53.446;9.988;2023-07-13T19:40:41;17.00;99.90
16388;DHT22;8303;53.446;9.988;2023-07-13T19:43:10;17.00;1.00
16388;DHT22;8303;53.446;9.988;2023-07-13T19:45:39;16.90;1.00
16388;DHT22;8303;53.446;9.988;2023-07-13T19:48:06;16.90;1.00
16388;DHT22;8303;53.446;9.988;2023-07-13T19:50:34;16.90;1.00
16388;DHT22;8303;53.446;9.988;2023-07-13T19:53:02;16.90;1.00
16388;DHT22;8303;53.446;9.988;2023-07-13T19:55:29;16.90;1.00
16388;DHT22;8303;53.446;9.988;2023-07-13T19:57:56;17.00;1.00
16388;DHT22;8303;53.446;9.988;2023-07-13T20:00:25;17.00;1.00
16388;DHT22;8303;53.446;9.988;2023-07-13T20:02:54;17.00;99.90
16388;DHT22;8303;53.446;9.988;2023-07-13T20:05:22;17.00;1.00
16388;DHT22;8303;53.446;9.988;2023-07-13T20:07:54;16.90;1.00
16388;DHT22;8303;53.446;9.988;2023-07-13T20:10:23;16.90;1.00
16388;DHT22;8303;53.446;9.988;2023-07-13T20:12:52;16.70;99.90
16388;DHT22;8303;53.446;9.988;2023-07-13T20:15:22;16.60;99.90
16388;DHT22;8303;53.446;9.988;2023-07-13T20:17:51;16.50;1.00
16388;DHT22;8303;53.446;9.988;2023-07-13T20:20:26;16.40;1.00
16388;DHT22;8303;53.446;9.988;2023-07-13T20:22:56;16.30;99.90
16388;DHT22;8303;53.446;9.988;2023-07-13T20:25:24;16.20;1.00
16388;DHT22;8303;53.446;9.988;2023-07-13T20:27:52;16.20;1.00
